createdAt,value
2023-04-13T00:00:36.469Z,97373.59
2023-04-13T00:03:04.279Z,97363.97
2023-04-13T00:05:31.866Z,97348.25
2023-04-13T00:08:03.026Z,97350.03
2023-04-13T00:10:36.817Z,97348.25
2023-04-13T00:13:08.561Z,97347.38
2023-04-13T00:15:38.108Z,97340.31
2023-04-13T00:18:06.893Z,97336.97
2023-04-13T00:20:33.736Z,97343.91
2023-04-13T00:23:01.669Z,97346.56
2023-04-13T00:25:29.271Z,97344.09
2023-04-13T00:27:56.047Z,97335.88
2023-04-13T00:30:22.801Z,97346.03
2023-04-13T00:32:49.593Z,97351.31
2023-04-13T00:35:24.967Z,97352.31
2023-04-13T00:37:52.739Z,97350.63
2023-04-13T00:40:19.518Z,97355.28
2023-04-13T00:42:48.193Z,97344.81
2023-04-13T00:45:15.742Z,97348.47
2023-04-13T00:47:46.504Z,97352.06
2023-04-13T00:50:14.225Z,97350.41
2023-04-13T00:52:42.806Z,97352.38
2023-04-13T00:55:09.688Z,97345.41
2023-04-13T00:57:40.191Z,97350.84
2023-04-13T01:00:11.423Z,97345.56
2023-04-13T01:02:42.411Z,97337.38
2023-04-13T01:05:12.757Z,97333.50
2023-04-13T01:07:59.437Z,97354.63
2023-04-13T01:10:50.384Z,97355.59
2023-04-13T01:13:30.284Z,97359.22
2023-04-13T01:16:03.759Z,97360.22
2023-04-13T01:18:38.454Z,97339.09
2023-04-13T01:21:12.090Z,97360.34
2023-04-13T01:24:06.357Z,97349.75
2023-04-13T01:26:58.398Z,97356.03
2023-04-13T01:29:27.302Z,97357.03
2023-04-13T01:31:54.978Z,97364.97
2023-04-13T01:34:23.844Z,97358.84
2023-04-13T01:36:51.069Z,97355.53
2023-04-13T01:39:19.674Z,97361.63
2023-04-13T01:41:47.749Z,97364.28
2023-04-13T01:44:14.478Z,97368.75
2023-04-13T01:46:50.429Z,97359.97
2023-04-13T01:49:35.800Z,97353.00
2023-04-13T01:52:27.991Z,97357.47
2023-04-13T01:54:56.514Z,97347.03
2023-04-13T01:57:24.619Z,97358.44
2023-04-13T01:59:52.066Z,97358.59
2023-04-13T02:02:21.067Z,97360.28
2023-04-13T02:04:48.534Z,97357.09
2023-04-13T02:07:16.338Z,97356.06
2023-04-13T02:09:47.184Z,97352.63
2023-04-13T02:12:16.704Z,97352.63
2023-04-13T02:14:43.574Z,97352.78
2023-04-13T02:17:11.270Z,97352.63
2023-04-13T02:19:39.918Z,97367.13
2023-04-13T02:22:07.188Z,97348.44
2023-04-13T02:24:33.720Z,97352.06
2023-04-13T02:27:02.070Z,97358.34
2023-04-13T02:29:29.672Z,97361.13
2023-04-13T02:31:56.260Z,97361.13
2023-04-13T02:34:23.126Z,97371.72
2023-04-13T02:36:50.006Z,97370.91
2023-04-13T02:39:16.523Z,97363.09
2023-04-13T02:41:43.362Z,97362.41
2023-04-13T02:44:14.874Z,97362.41
2023-04-13T02:46:53.083Z,97372.16
2023-04-13T02:49:19.973Z,97368.69
2023-04-13T02:51:56.094Z,97363.28
2023-04-13T02:54:34.601Z,97369.81
2023-04-13T02:57:01.846Z,97368.84
2023-04-13T02:59:29.065Z,97370.78
2023-04-13T03:01:58.957Z,97370.78
2023-04-13T03:04:29.207Z,97376.22
2023-04-13T03:06:56.875Z,97358.69
2023-04-13T03:09:25.208Z,97362.16
2023-04-13T03:11:56.391Z,97362.31
2023-04-13T03:14:24.317Z,97362.31
2023-04-13T03:16:57.786Z,97364.13
2023-04-13T03:19:31.976Z,97354.91
2023-04-13T03:21:58.969Z,97358.09
2023-04-13T03:24:27.592Z,97356.28
2023-04-13T03:26:57.887Z,97356.44
2023-04-13T03:29:31.718Z,97360.91
2023-04-13T03:31:58.494Z,97357.41
2023-04-13T03:34:27.118Z,97351.28
2023-04-13T03:36:53.710Z,97350.59
2023-04-13T03:39:21.026Z,97341.97
2023-04-13T03:41:47.682Z,97343.63
2023-04-13T03:44:16.512Z,97348.94
2023-04-13T03:46:44.877Z,97348.09
2023-04-13T03:49:31.915Z,97349.91
2023-04-13T03:51:58.922Z,97350.75
2023-04-13T03:54:26.944Z,97350.06
2023-04-13T03:56:54.601Z,97349.22
2023-04-13T03:59:22.264Z,97356.31
2023-04-13T04:01:48.955Z,97361.59
2023-04-13T04:04:16.170Z,97367.75
2023-04-13T04:06:43.030Z,97360.78
2023-04-13T04:09:15.690Z,97354.69
2023-04-13T04:11:46.819Z,97362.72
2023-04-13T04:14:18.185Z,97359.25
2023-04-13T04:17:01.993Z,97357.59
2023-04-13T04:19:28.688Z,97365.53
2023-04-13T04:21:57.654Z,97366.50
2023-04-13T04:24:27.500Z,97366.50
2023-04-13T04:26:58.989Z,97367.34
2023-04-13T04:29:34.269Z,97370.00
2023-04-13T04:32:11.111Z,97365.69
2023-04-13T04:34:40.822Z,97367.47
2023-04-13T04:37:19.777Z,97362.19
2023-04-13T04:39:56.832Z,97367.34
2023-04-13T04:42:25.179Z,97360.38
2023-04-13T04:44:52.867Z,97363.84
2023-04-13T04:47:21.382Z,97366.50
2023-04-13T04:50:12.763Z,97365.53
2023-04-13T04:52:41.770Z,97364.72
2023-04-13T04:55:10.156Z,97356.22
2023-04-13T04:57:40.165Z,97362.06
2023-04-13T05:00:15.657Z,97357.59
2023-04-13T05:02:50.010Z,97360.25
2023-04-13T05:05:16.890Z,97365.53
2023-04-13T05:07:44.924Z,97361.91
2023-04-13T05:10:12.322Z,97365.38
2023-04-13T05:12:44.352Z,97364.41
2023-04-13T05:15:12.314Z,97359.13
2023-04-13T05:17:39.257Z,97362.63
2023-04-13T05:20:09.457Z,97355.50
2023-04-13T05:22:45.281Z,97361.59
2023-04-13T05:25:13.242Z,97347.56
2023-04-13T05:27:39.787Z,97357.16
2023-04-13T05:30:09.483Z,97359.81
2023-04-13T05:32:38.646Z,97366.78
2023-04-13T05:35:05.862Z,97360.47
2023-04-13T05:37:35.451Z,97361.34
2023-04-13T05:40:02.829Z,97352.44
2023-04-13T05:42:32.701Z,97364.78
2023-04-13T05:45:00.818Z,97356.88
2023-04-13T05:47:29.005Z,97356.03
2023-04-13T05:50:02.351Z,97365.66
2023-04-13T05:52:30.487Z,97367.31
2023-04-13T05:54:58.032Z,97369.81
2023-04-13T05:57:25.034Z,97374.25
2023-04-13T05:59:54.664Z,97371.50
2023-04-13T06:02:29.258Z,97373.97
2023-04-13T06:04:56.452Z,97371.34
2023-04-13T06:07:23.284Z,97380.00
2023-04-13T06:09:49.988Z,97365.91
2023-04-13T06:12:18.212Z,97379.00
2023-04-13T06:14:45.483Z,97371.75
2023-04-13T06:17:12.105Z,97372.47
2023-04-13T06:19:39.279Z,97368.84
2023-04-13T06:22:05.821Z,97376.63
2023-04-13T06:24:37.377Z,97370.34
2023-04-13T06:27:05.685Z,97368.69
2023-04-13T06:29:32.348Z,97373.41
2023-04-13T06:32:05.129Z,97371.56
2023-04-13T06:34:31.795Z,97375.06
2023-04-13T06:37:00.353Z,97375.06
2023-04-13T06:39:32.480Z,97381.03
2023-04-13T06:42:01.358Z,97382.69
2023-04-13T06:44:47.512Z,97377.25
2023-04-13T06:47:16.102Z,97380.75
2023-04-13T06:49:44.509Z,97377.13
2023-04-13T06:52:11.710Z,97376.28
2023-04-13T06:54:38.706Z,97383.25
2023-04-13T06:57:16.156Z,97383.25
2023-04-13T06:59:42.892Z,97384.09
2023-04-13T07:02:09.660Z,97388.38
2023-04-13T07:04:37.648Z,97394.53
2023-04-13T07:07:04.596Z,97383.94
2023-04-13T07:09:32.144Z,97386.44
2023-04-13T07:12:05.452Z,97380.31
2023-04-13T07:14:36.743Z,97372.66
2023-04-13T07:17:04.814Z,97379.34
2023-04-13T07:19:33.831Z,97374.72
2023-04-13T07:22:04.244Z,97376.38
2023-04-13T07:24:33.837Z,97372.75
2023-04-13T07:27:03.172Z,97372.63
2023-04-13T07:29:29.826Z,97373.31
2023-04-13T07:32:03.511Z,97381.78
2023-04-13T07:34:35.826Z,97372.88
2023-04-13T07:37:02.757Z,97379.69
2023-04-13T07:39:30.457Z,97374.06
2023-04-13T07:41:57.185Z,97376.56
2023-04-13T07:44:33.430Z,97383.41
2023-04-13T07:47:02.531Z,97378.78
2023-04-13T07:49:31.230Z,97376.69
2023-04-13T07:51:59.617Z,97380.19
2023-04-13T07:54:29.266Z,97378.34
2023-04-13T07:56:59.809Z,97378.03
2023-04-13T07:59:29.795Z,97379.69
2023-04-13T08:01:58.071Z,97376.09
2023-04-13T08:04:25.877Z,97381.38
2023-04-13T08:06:54.005Z,97360.56
2023-04-13T08:09:21.089Z,97385.16
2023-04-13T08:11:47.806Z,97379.16
2023-04-13T08:14:15.190Z,97373.88
2023-04-13T08:16:41.870Z,97377.22
2023-04-13T08:19:09.969Z,97383.22
2023-04-13T08:21:44.213Z,97380.41
2023-04-13T08:24:11.470Z,97386.50
2023-04-13T08:26:38.295Z,97381.09
2023-04-13T08:29:04.998Z,97381.91
2023-04-13T08:31:32.538Z,97386.94
2023-04-13T08:34:04.634Z,97381.47
2023-04-13T08:36:31.830Z,97372.19
2023-04-13T08:39:05.939Z,97373.91
2023-04-13T08:41:39.232Z,97380.59
2023-04-13T08:44:08.501Z,97375.19
2023-04-13T08:46:42.663Z,97380.84
2023-04-13T08:49:12.941Z,97372.53
2023-04-13T08:52:00.028Z,97366.25
2023-04-13T08:54:28.450Z,97388.19
2023-04-13T08:56:57.703Z,97376.47
2023-04-13T08:59:28.024Z,97380.63
2023-04-13T09:01:55.827Z,97382.28
2023-04-13T09:04:28.463Z,97380.34
2023-04-13T09:07:00.148Z,97383.00
2023-04-13T09:09:28.038Z,97375.16
2023-04-13T09:11:54.559Z,97387.28
2023-04-13T09:14:21.996Z,97382.69
2023-04-13T09:16:48.936Z,97384.19
2023-04-13T09:19:31.266Z,97380.72
2023-04-13T09:21:57.918Z,97378.72
2023-04-13T09:26:52.468Z,97375.78
2023-04-13T09:29:21.681Z,97373.66
2023-04-13T09:31:48.685Z,97377.84
2023-04-13T09:34:27.022Z,97368.03
2023-04-13T09:36:56.084Z,97368.91
2023-04-13T09:39:28.382Z,97367.75
2023-04-13T09:41:55.338Z,97372.25
2023-04-13T09:44:34.586Z,97370.25
2023-04-13T09:47:06.855Z,97370.94
2023-04-13T09:49:41.281Z,97366.47
2023-04-13T09:52:21.170Z,97372.44
2023-04-13T09:54:52.919Z,97366.78
2023-04-13T09:57:24.563Z,97353.53
2023-04-13T09:59:52.552Z,97363.69
2023-04-13T10:02:19.885Z,97369.19
2023-04-13T10:07:13.205Z,97369.72
2023-04-13T10:09:42.221Z,97370.41
2023-04-13T10:12:11.847Z,97369.41
2023-04-13T10:14:40.863Z,97377.22
2023-04-13T10:17:33.766Z,97372.03
2023-04-13T10:20:07.973Z,97361.59
2023-04-13T10:22:34.653Z,97372.38
2023-04-13T10:25:01.379Z,97369.03
2023-04-13T10:27:28.510Z,97362.06
2023-04-13T10:29:55.172Z,97362.22
2023-04-13T10:34:39.588Z,97361.53
2023-04-13T10:37:19.189Z,97360.41
2023-04-13T10:39:46.695Z,97358.88
2023-04-13T10:42:14.470Z,97359.88
2023-04-13T10:44:44.809Z,97356.56
2023-04-13T10:47:13.556Z,97356.72
2023-04-13T10:49:41.297Z,97352.38
2023-04-13T10:52:10.705Z,97341.25
2023-04-13T10:54:38.183Z,97352.69
2023-04-13T10:57:06.650Z,97352.69
2023-04-13T11:02:16.485Z,97351.16
2023-04-13T11:04:45.974Z,97357.59
2023-04-13T11:07:17.010Z,97353.16
2023-04-13T11:09:45.565Z,97357.59
2023-04-13T11:12:15.644Z,97353.59
2023-04-13T11:14:49.553Z,97349.13
2023-04-13T11:17:18.857Z,97362.09
2023-04-13T11:19:49.985Z,97363.88
2023-04-13T11:22:18.389Z,97353.59
2023-04-13T11:24:47.465Z,97363.88
2023-04-13T11:27:23.236Z,97355.13
2023-04-13T11:30:07.357Z,97356.91
2023-04-13T11:32:34.298Z,97357.94
2023-04-13T11:35:10.721Z,97354.44
2023-04-13T11:37:43.326Z,97345.66
2023-04-13T11:40:17.661Z,97348.59
2023-04-13T11:42:48.045Z,97342.09
2023-04-13T11:45:16.306Z,97346.09
2023-04-13T11:47:43.810Z,97329.31
2023-04-13T11:50:11.514Z,97335.81
2023-04-13T11:52:40.253Z,97326.88
2023-04-13T11:55:21.550Z,97326.88
2023-04-13T11:57:50.764Z,97324.22
2023-04-13T12:00:21.405Z,97323.41
2023-04-13T12:03:00.972Z,97325.88
2023-04-13T12:05:31.479Z,97309.81
2023-04-13T12:08:00.268Z,97314.69
2023-04-13T12:10:39.328Z,97313.41
2023-04-13T12:16:05.445Z,97301.50
2023-04-13T12:18:44.423Z,97303.38
2023-04-13T12:21:16.413Z,97299.44
2023-04-13T12:23:54.149Z,97286.81
2023-04-13T12:26:59.124Z,97301.59
2023-04-13T12:29:08.939Z,97294.44
2023-04-13T12:31:38.173Z,97306.63
2023-04-13T12:34:08.431Z,97298.13
2023-04-13T12:36:36.500Z,97306.97
2023-04-13T12:39:04.470Z,97311.13
2023-04-13T12:41:32.037Z,97310.16
2023-04-13T12:43:59.049Z,97309.19
2023-04-13T12:46:26.595Z,97309.03
2023-04-13T12:48:53.954Z,97308.88
2023-04-13T12:51:26.958Z,97306.91
2023-04-13T12:53:53.571Z,97314.69
2023-04-13T12:56:20.062Z,97271.09
2023-04-13T12:58:46.803Z,97303.56
2023-04-13T13:01:14.100Z,97313.56
2023-04-13T13:03:41.038Z,97312.41
2023-04-13T13:06:08.337Z,97302.81
2023-04-13T13:08:37.595Z,97312.28
2023-04-13T13:11:08.245Z,97300.16
2023-04-13T13:13:34.923Z,97292.72
2023-04-13T13:16:02.009Z,97309.28
2023-04-13T13:20:55.802Z,97303.00
2023-04-13T13:23:22.541Z,97305.50
2023-04-13T13:26:10.508Z,97303.81
2023-04-13T13:28:37.025Z,97302.72
2023-04-13T13:31:03.966Z,97299.03
2023-04-13T13:33:31.490Z,97288.25
2023-04-13T13:35:58.138Z,97305.03
2023-04-13T13:38:24.779Z,97305.84
2023-04-13T13:40:51.902Z,97310.19
2023-04-13T13:43:21.417Z,97307.38
2023-04-13T13:45:48.775Z,97308.38
2023-04-13T13:48:15.919Z,97305.19
2023-04-13T13:50:50.428Z,97310.81
2023-04-13T13:53:17.181Z,97308.31
2023-04-13T13:55:45.137Z,97315.28
2023-04-13T13:58:11.898Z,97309.97
2023-04-13T14:00:38.403Z,97309.63
2023-04-13T14:03:05.701Z,97315.13
2023-04-13T14:05:32.293Z,97315.97
2023-04-13T14:07:59.027Z,97313.63
2023-04-13T14:10:25.668Z,97321.28
2023-04-13T14:12:53.033Z,97314.13
2023-04-13T14:15:19.494Z,97311.50
2023-04-13T14:17:55.426Z,97314.13
2023-04-13T14:20:32.511Z,97307.31
2023-04-13T14:22:59.387Z,97313.31
2023-04-13T14:25:25.998Z,97321.41
2023-04-13T14:27:52.994Z,97324.56
2023-04-13T14:30:21.930Z,97327.66
2023-04-13T14:32:49.391Z,97332.44
2023-04-13T14:35:16.284Z,97329.28
2023-04-13T14:37:42.985Z,97328.03
2023-04-13T14:40:15.957Z,97323.72
2023-04-13T14:42:43.350Z,97314.50
2023-04-13T14:45:12.278Z,97330.47
2023-04-13T14:47:40.001Z,97330.63
2023-04-13T14:50:08.321Z,97325.78
2023-04-13T14:52:34.983Z,97321.63
2023-04-13T14:55:01.594Z,97328.59
2023-04-13T14:57:29.004Z,97309.28
2023-04-13T14:59:56.489Z,97321.09
2023-04-13T15:02:23.467Z,97322.78
2023-04-13T15:04:50.402Z,97334.19
2023-04-13T15:07:18.801Z,97339.66
2023-04-13T15:09:45.442Z,97340.66
2023-04-13T15:12:13.732Z,97340.94
2023-04-13T15:14:41.057Z,97348.75
2023-04-13T15:17:08.584Z,97343.59
2023-04-13T15:19:35.477Z,97357.69
2023-04-13T15:22:04.754Z,97361.16
2023-04-13T15:24:31.824Z,97362.13
2023-04-13T15:26:58.354Z,97364.50
2023-04-13T15:29:26.966Z,97381.22
2023-04-13T15:31:53.980Z,97381.63
2023-04-13T15:34:20.685Z,97382.44
2023-04-13T15:36:48.166Z,97378.81
2023-04-13T15:39:14.729Z,97375.19
2023-04-13T15:41:43.674Z,97376.00
2023-04-13T15:44:10.916Z,97373.81
2023-04-13T15:46:37.711Z,97378.66
2023-04-13T15:49:04.390Z,97381.16
2023-04-13T15:51:31.884Z,97385.63
2023-04-13T15:53:58.477Z,97382.97
2023-04-13T15:56:25.012Z,97391.75
2023-04-13T15:58:51.607Z,97382.97
2023-04-13T16:01:18.201Z,97378.66
2023-04-13T16:03:46.354Z,97376.00
2023-04-13T16:06:13.298Z,97385.63
2023-04-13T16:08:40.076Z,97390.78
2023-04-13T16:11:06.620Z,97392.59
2023-04-13T16:13:48.783Z,97396.06
2023-04-13T16:16:16.811Z,97405.00
2023-04-13T16:18:43.515Z,97414.78
2023-04-13T16:21:11.106Z,97405.97
2023-04-13T16:23:38.243Z,97388.19
2023-04-13T16:26:05.082Z,97408.78
2023-04-13T16:28:31.634Z,97411.75
2023-04-13T16:30:59.015Z,97413.94
2023-04-13T16:33:25.582Z,97414.25
2023-04-13T16:35:52.097Z,97360.13
2023-04-13T16:38:19.036Z,97397.63
2023-04-13T16:40:45.768Z,97420.69
2023-04-13T16:43:12.588Z,97397.06
2023-04-13T16:45:39.262Z,97425.84
2023-04-13T16:48:06.319Z,97422.38
2023-04-13T16:50:40.666Z,97419.03
2023-04-13T16:53:07.382Z,97412.13
2023-04-13T16:55:33.920Z,97430.59
2023-04-13T16:58:00.770Z,97437.75
2023-04-13T17:00:27.397Z,97437.06
2023-04-13T17:02:54.123Z,97430.41
2023-04-13T17:05:20.869Z,97444.31
2023-04-13T17:07:48.096Z,97449.59
2023-04-13T17:10:14.973Z,97453.28
2023-04-13T17:12:41.717Z,97443.13
2023-04-13T17:15:09.584Z,97450.75
2023-04-13T17:17:37.933Z,97459.56
2023-04-13T17:20:05.825Z,97455.28
2023-04-13T17:22:32.564Z,97469.47
2023-04-13T17:24:59.159Z,97476.59
2023-04-13T17:27:25.714Z,97469.63
2023-04-13T17:29:52.253Z,97482.88
2023-04-13T17:32:21.405Z,97481.03
2023-04-13T17:34:48.612Z,97479.38
2023-04-13T17:37:15.881Z,97483.84
2023-04-13T17:39:50.657Z,97479.38
2023-04-13T17:42:19.111Z,97472.47
2023-04-13T17:44:45.721Z,97502.25
2023-04-13T17:47:12.324Z,97500.56
2023-04-13T17:49:41.628Z,97497.09
2023-04-13T17:52:08.795Z,97493.69
2023-04-13T17:54:36.148Z,97512.19
2023-04-13T17:57:07.050Z,97514.84
2023-04-13T17:59:33.779Z,97501.75
2023-04-13T18:02:00.506Z,97524.44
2023-04-13T18:04:27.935Z,97520.97
2023-04-13T18:06:56.452Z,97532.38
2023-04-13T18:09:27.022Z,97526.25
2023-04-13T18:11:53.723Z,97536.84
2023-04-13T18:14:20.861Z,97534.22
2023-04-13T18:16:49.688Z,97544.00
2023-04-13T18:19:16.226Z,97549.28
2023-04-13T18:21:43.927Z,97552.75
2023-04-13T18:24:16.386Z,97550.94
2023-04-13T18:26:44.914Z,97526.16
2023-04-13T18:29:13.680Z,97542.97
2023-04-13T18:31:40.502Z,97544.81
2023-04-13T18:34:13.403Z,97548.16
2023-04-13T18:36:40.492Z,97528.13
2023-04-13T18:39:07.631Z,97555.13
2023-04-13T18:41:35.279Z,97556.94
2023-04-13T18:44:02.415Z,97554.44
2023-04-13T18:46:29.288Z,97555.25
2023-04-13T18:48:55.919Z,97554.03
2023-04-13T18:51:22.861Z,97570.34
2023-04-13T18:53:50.110Z,97567.84
2023-04-13T18:56:16.892Z,97559.47
2023-04-13T18:58:44.904Z,97565.19
2023-04-13T19:01:18.612Z,97566.28
2023-04-13T19:03:46.197Z,97573.25
2023-04-13T19:06:12.945Z,97571.47
2023-04-13T19:08:39.587Z,97566.59
2023-04-13T19:11:06.124Z,97575.09
2023-04-13T19:13:36.095Z,97571.75
2023-04-13T19:16:06.444Z,97564.38
2023-04-13T19:18:34.909Z,97567.19
2023-04-13T19:21:01.491Z,97580.00
2023-04-13T19:23:28.506Z,97579.31
2023-04-13T19:25:55.450Z,97572.19
2023-04-13T19:30:44.740Z,97579.16
2023-04-13T19:33:13.069Z,97575.69
2023-04-13T19:38:05.894Z,97569.44
2023-04-13T19:40:33.745Z,97569.28
2023-04-13T19:43:01.413Z,97550.25
2023-04-13T19:45:28.363Z,97574.59
2023-04-13T19:47:55.109Z,97581.41
2023-04-13T19:50:22.537Z,97575.28
2023-04-13T19:52:50.253Z,97569.13
2023-04-13T19:55:17.079Z,97572.66
2023-04-13T19:57:43.719Z,97570.97
2023-04-13T20:00:20.799Z,97549.81
2023-04-13T20:02:49.863Z,97569.13
2023-04-13T20:05:19.734Z,97564.16
2023-04-13T20:07:46.890Z,97563.44
2023-04-13T20:10:13.618Z,97574.75
2023-04-13T20:12:40.615Z,97571.25
2023-04-13T20:15:07.931Z,97572.22
2023-04-13T20:17:35.079Z,97568.75
2023-04-13T20:20:04.376Z,97571.41
2023-04-13T20:22:32.172Z,97574.47
2023-04-13T20:24:58.775Z,97569.88
2023-04-13T20:27:25.985Z,97572.53
2023-04-13T20:29:52.613Z,97549.16
2023-04-13T20:32:19.611Z,97567.38
2023-04-13T20:34:47.150Z,97563.88
2023-04-13T20:37:14.390Z,97577.13
2023-04-13T20:39:50.253Z,97569.19
2023-04-13T20:42:22.397Z,97575.44
2023-04-13T20:44:57.526Z,97570.16
2023-04-13T20:47:27.513Z,97572.28
2023-04-13T20:49:57.295Z,97577.13
2023-04-13T20:52:24.678Z,97582.44
2023-04-13T20:54:51.616Z,97581.59
2023-04-13T20:57:19.853Z,97578.94
2023-04-13T20:59:47.234Z,97588.69
2023-04-13T21:02:15.565Z,97586.06
2023-04-13T21:06:55.043Z,97584.25
2023-04-13T21:09:21.571Z,97583.41
2023-04-13T21:11:48.030Z,97587.06
2023-04-13T21:14:22.726Z,97583.56
2023-04-13T21:16:49.288Z,97586.19
2023-04-13T21:19:15.949Z,97585.38
2023-04-13T21:21:42.616Z,97584.53
2023-04-13T21:24:09.209Z,97585.53
2023-04-13T21:26:35.746Z,97589.81
2023-04-13T21:29:02.354Z,97582.03
2023-04-13T21:31:29.028Z,97582.19
2023-04-13T21:33:56.017Z,97576.72
2023-04-13T21:38:52.218Z,97571.75
2023-04-13T21:41:20.840Z,97583.97
2023-04-13T21:43:47.827Z,97579.69
2023-04-13T21:46:15.888Z,97577.88
2023-04-13T21:48:42.601Z,97556.81
2023-04-13T21:51:09.715Z,97571.88
2023-04-13T21:53:36.884Z,97574.50
2023-04-13T21:56:04.139Z,97574.50
2023-04-13T21:58:38.588Z,97576.34
2023-04-13T22:01:06.635Z,97575.53
2023-04-13T22:03:41.005Z,97575.53
2023-04-13T22:06:10.691Z,97565.91
2023-04-13T22:08:37.725Z,97573.84
2023-04-13T22:11:04.693Z,97566.00
2023-04-13T22:13:31.467Z,97566.00
2023-04-13T22:15:58.626Z,97571.31
2023-04-13T22:18:26.478Z,97563.38
2023-04-13T22:20:53.226Z,97567.03
2023-04-13T22:23:20.246Z,97574.13
2023-04-13T22:25:53.923Z,97572.44
2023-04-13T22:28:20.478Z,97568.09
2023-04-13T22:30:47.286Z,97563.66
2023-04-13T22:33:14.299Z,97561.00
2023-04-13T22:35:41.636Z,97564.63
2023-04-13T22:38:08.325Z,97554.03
2023-04-13T22:40:37.782Z,97550.28
2023-04-13T22:43:04.820Z,97559.47
2023-04-13T22:45:31.625Z,97569.22
2023-04-13T22:47:58.248Z,97560.44
2023-04-13T22:50:24.873Z,97572.88
2023-04-13T22:52:53.282Z,97542.91
2023-04-13T22:55:20.655Z,97563.25
2023-04-13T22:57:47.500Z,97564.06
2023-04-13T23:00:14.297Z,97556.13
2023-04-13T23:02:41.215Z,97559.63
2023-04-13T23:05:08.477Z,97554.44
2023-04-13T23:07:35.365Z,97553.63
2023-04-13T23:10:01.972Z,97550.13
2023-04-13T23:12:28.917Z,97550.97
2023-04-13T23:14:55.406Z,97549.16
2023-04-13T23:17:22.315Z,97543.19
2023-04-13T23:19:48.882Z,97533.41
2023-04-13T23:22:15.437Z,97517.69
2023-04-13T23:24:42.038Z,97520.31
2023-04-13T23:27:08.633Z,97513.34
2023-04-13T23:29:35.326Z,97525.78
2023-04-13T23:32:01.996Z,97537.19
2023-04-13T23:34:28.714Z,97539.03
2023-04-13T23:36:56.171Z,97539.13
2023-04-13T23:39:23.058Z,97531.19
2023-04-13T23:41:49.608Z,97535.66
2023-04-13T23:44:16.291Z,97545.41
2023-04-13T23:46:43.658Z,97534.00
2023-04-13T23:49:10.153Z,97528.69
2023-04-13T23:51:36.786Z,97528.69
2023-04-13T23:54:03.391Z,97525.34
2023-04-13T23:56:30.466Z,97523.41
2023-04-13T23:58:56.962Z,97518.25
